Time;durP1;ratioP1;P1;durP2;ratioP2;P2;SDS_P1;SDS_P2;PMS_P1;PMS_P2;Temp;Humidity;BMP_temperature;BMP_pressure;BME280_temperature;BME280_humidity;BME280_pressure;Samples;Min_cycle;Max_cycle;Signal;HPM_P1;HPM_P2
2023/07/16 00:01:56;;;;;;;5.30;2.08;;;;;;;;;;4875216;29;20025;-87
2023/07/16 00:04:22;;;;;;;5.88;2.10;;;;;;;;;;4872078;29;20113;-90
2023/07/16 00:06:49;;;;;;;5.75;1.92;;;;;;;;;;4870427;29;20030;-88
2023/07/16 00:09:15;;;;;;;5.72;2.30;;;;;;;;;;4881064;29;20029;-86
2023/07/16 00:11:41;;;;;;;5.68;2.03;;;;;;;;;;4873788;29;20540;-85
2023/07/16 00:14:07;;;;;;;6.05;2.10;;;;;;;;;;4866014;29;20037;-85
2023/07/16 00:16:34;;;;;;;4.68;1.85;;;;;;;;;;4886861;29;20033;-87
2023/07/16 00:19:00;;;;;;;5.65;2.10;;;;;;;;;;4871479;29;20041;-84
2023/07/16 00:21:26;;;;;;;4.53;1.90;;;;;;;;;;4868301;29;20029;-88
2023/07/16 00:23:52;;;;;;;4.47;2.00;;;;;;;;;;4871074;29;20037;-87
2023/07/16 00:26:18;;;;;;;5.78;2.40;;;;;;;;;;4869156;29;20044;-89
2023/07/16 00:28:44;;;;;;;7.20;2.38;;;;;;;;;;4863226;29;20033;-87
2023/07/16 00:31:11;;;;;;;6.43;1.92;;;;;;;;;;4872760;29;20025;-86
2023/07/16 00:33:37;;;;;;;5.75;1.90;;;;;;;;;;4872920;29;20043;-88
2023/07/16 00:36:03;;;;;;;5.68;1.80;;;;;;;;;;4868824;29;20041;-85
2023/07/16 00:38:29;;;;;;;3.60;1.98;;;;;;;;;;4890292;29;20027;-89
2023/07/16 00:40:56;;;;;;;6.13;2.10;;;;;;;;;;4878929;29;20060;-88
2023/07/16 00:43:22;;;;;;;8.25;2.10;;;;;;;;;;4888499;29;20029;-89
2023/07/16 00:45:49;;;;;;;12.43;2.10;;;;;;;;;;4878178;29;20034;-86
2023/07/16 00:48:19;;;;;;;5.22;2.08;;;;;;;;;;4861418;29;20045;-87
2023/07/16 00:50:45;;;;;;;10.63;2.90;;;;;;;;;;4883540;29;20033;-85
2023/07/16 00:53:12;;;;;;;7.47;2.22;;;;;;;;;;4880137;29;20060;-87
2023/07/16 00:55:39;;;;;;;4.07;1.90;;;;;;;;;;4865008;29;20121;-85
2023/07/16 00:58:06;;;;;;;4.82;2.38;;;;;;;;;;4885772;29;20089;-88
2023/07/16 01:00:37;;;;;;;4.63;2.25;;;;;;;;;;4890014;29;20029;-86
2023/07/16 01:03:05;;;;;;;6.35;2.13;;;;;;;;;;4878747;29;20040;-85
2023/07/16 01:05:46;;;;;;;6.55;2.30;;;;;;;;;;4885620;29;20048;-89
2023/07/16 01:08:12;;;;;;;6.55;2.38;;;;;;;;;;4867964;29;20108;-88
2023/07/16 01:10:41;;;;;;;5.68;2.10;;;;;;;;;;4864351;29;20041;-87
2023/07/16 01:13:07;;;;;;;6.30;2.70;;;;;;;;;;4875082;29;20029;-89
2023/07/16 01:15:33;;;;;;;5.15;2.20;;;;;;;;;;4877737;29;20028;-88
2023/07/16 01:18:00;;;;;;;4.93;1.77;;;;;;;;;;4870102;29;20428;-90
2023/07/16 01:20:26;;;;;;;5.10;2.30;;;;;;;;;;4875894;29;20041;-88
2023/07/16 01:23:11;;;;;;;4.63;2.30;;;;;;;;;;4875001;29;20029;-89
2023/07/16 01:25:37;;;;;;;5.93;2.40;;;;;;;;;;4877155;29;20028;-89
2023/07/16 01:28:17;;;;;;;6.57;2.28;;;;;;;;;;4876394;29;20029;-87
2023/07/16 01:30:44;;;;;;;4.70;1.90;;;;;;;;;;4885632;29;20029;-87
2023/07/16 01:33:11;;;;;;;8.15;2.42;;;;;;;;;;4881064;29;20121;-88
2023/07/16 01:35:39;;;;;;;5.25;2.13;;;;;;;;;;4895631;29;20068;-88
2023/07/16 01:38:05;;;;;;;5.93;2.55;;;;;;;;;;4890398;29;20040;-87
2023/07/16 01:40:31;;;;;;;5.63;2.20;;;;;;;;;;4878290;29;20029;-89
2023/07/16 01:42:57;;;;;;;6.07;2.40;;;;;;;;;;4872261;29;20056;-87
2023/07/16 01:45:24;;;;;;;8.57;2.20;;;;;;;;;;4873984;29;20508;-88
2023/07/16 01:47:55;;;;;;;8.15;2.28;;;;;;;;;;4871940;29;20376;-87
2023/07/16 01:50:21;;;;;;;6.32;2.17;;;;;;;;;;4869829;29;20064;-89
2023/07/16 01:52:47;;;;;;;8.68;2.50;;;;;;;;;;4867747;29;20030;-87
2023/07/16 01:55:14;;;;;;;5.50;2.47;;;;;;;;;;4870753;29;20405;-89
2023/07/16 01:57:40;;;;;;;8.35;2.25;;;;;;;;;;4887946;29;20029;-87
2023/07/16 02:00:07;;;;;;;6.28;2.10;;;;;;;;;;4871672;29;20036;-89
2023/07/16 02:02:35;;;;;;;8.85;2.33;;;;;;;;;;4877230;29;20029;-89
2023/07/16 02:05:02;;;;;;;8.10;2.22;;;;;;;;;;4885646;29;20033;-85
2023/07/16 02:07:28;;;;;;;7.45;2.35;;;;;;;;;;4874591;29;20112;-90
2023/07/16 02:09:54;;;;;;;5.70;2.03;;;;;;;;;;4874628;29;20028;-88
2023/07/16 02:12:20;;;;;;;9.27;2.50;;;;;;;;;;4858666;29;20033;-87
2023/07/16 02:14:47;;;;;;;8.75;2.00;;;;;;;;;;4856625;29;20127;-88
2023/07/16 02:17:14;;;;;;;5.75;2.10;;;;;;;;;;4876678;29;20370;-89
2023/07/16 02:19:42;;;;;;;7.53;2.53;;;;;;;;;;4889175;29;20032;-86
2023/07/16 02:22:08;;;;;;;6.28;2.55;;;;;;;;;;4873995;29;20084;-89
2023/07/16 02:24:35;;;;;;;6.70;2.30;;;;;;;;;;4859165;29;20037;-88
2023/07/16 02:27:03;;;;;;;8.40;2.50;;;;;;;;;;4872032;29;20087;-89
2023/07/16 02:29:33;;;;;;;7.32;2.22;;;;;;;;;;4872778;29;20033;-86
2023/07/16 02:31:59;;;;;;;4.03;1.90;;;;;;;;;;4875399;29;20086;-88
2023/07/16 02:34:28;;;;;;;12.70;2.47;;;;;;;;;;4894872;29;20052;-88
2023/07/16 02:36:57;;;;;;;6.50;2.33;;;;;;;;;;4869520;29;20052;-87
2023/07/16 02:39:24;;;;;;;6.20;2.47;;;;;;;;;;4872685;29;20022;-88
2023/07/16 02:41:50;;;;;;;5.68;2.67;;;;;;;;;;4873159;29;20053;-86
2023/07/16 02:44:19;;;;;;;8.57;2.30;;;;;;;;;;4870577;29;20025;-88
2023/07/16 02:46:46;;;;;;;6.53;2.20;;;;;;;;;;4879602;29;20543;-87
2023/07/16 02:49:13;;;;;;;7.03;2.30;;;;;;;;;;4871169;29;20037;-88
2023/07/16 02:51:39;;;;;;;5.43;2.30;;;;;;;;;;4886696;29;20028;-86
2023/07/16 02:54:07;;;;;;;10.43;2.60;;;;;;;;;;4890132;29;20037;-89
2023/07/16 02:56:33;;;;;;;8.60;2.50;;;;;;;;;;4861912;29;20252;-88
2023/07/16 02:58:59;;;;;;;6.55;2.22;;;;;;;;;;4890923;29;20089;-89
2023/07/16 03:01:25;;;;;;;9.43;2.42;;;;;;;;;;4855957;29;20037;-88
2023/07/16 03:03:51;;;;;;;9.45;2.92;;;;;;;;;;4871916;29;20044;-90
2023/07/16 03:06:17;;;;;;;9.68;2.90;;;;;;;;;;4892553;29;20037;-87
2023/07/16 03:08:46;;;;;;;7.88;2.40;;;;;;;;;;4873509;29;20041;-89
2023/07/16 03:11:13;;;;;;;6.70;2.60;;;;;;;;;;4887398;29;20101;-87
2023/07/16 03:13:39;;;;;;;9.75;2.63;;;;;;;;;;4859996;29;20032;-88
2023/07/16 03:16:08;;;;;;;10.20;2.10;;;;;;;;;;4885232;29;20029;-86
2023/07/16 03:18:37;;;;;;;10.68;2.33;;;;;;;;;;4860640;29;20045;-88
2023/07/16 03:21:03;;;;;;;8.23;2.65;;;;;;;;;;4871311;29;20052;-89
2023/07/16 03:23:29;;;;;;;5.05;2.40;;;;;;;;;;4870766;29;20030;-86
2023/07/16 03:25:55;;;;;;;9.00;2.58;;;;;;;;;;4866278;29;20119;-89
2023/07/16 03:28:21;;;;;;;7.07;2.50;;;;;;;;;;4871319;29;20043;-87
2023/07/16 03:30:51;;;;;;;6.43;2.08;;;;;;;;;;4872405;29;20136;-85
2023/07/16 03:33:17;;;;;;;6.70;2.35;;;;;;;;;;4883644;29;20085;-89
2023/07/16 03:35:46;;;;;;;6.28;2.33;;;;;;;;;;4874124;29;20407;-88
2023/07/16 03:38:17;;;;;;;9.63;2.75;;;;;;;;;;4883465;29;20416;-89
2023/07/16 03:40:46;;;;;;;8.48;2.40;;;;;;;;;;4872124;29;20029;-89
2023/07/16 03:43:13;;;;;;;8.23;2.40;;;;;;;;;;4891166;29;20045;-87
2023/07/16 03:45:39;;;;;;;7.85;2.45;;;;;;;;;;4869829;29;20470;-89
2023/07/16 03:48:05;;;;;;;8.00;2.03;;;;;;;;;;4881765;29;20040;-88
2023/07/16 03:50:31;;;;;;;6.47;2.50;;;;;;;;;;4870243;29;20026;-89
2023/07/16 03:52:58;;;;;;;8.23;2.83;;;;;;;;;;4884371;29;20029;-90
2023/07/16 03:55:27;;;;;;;4.82;2.20;;;;;;;;;;4869101;29;20033;-84
2023/07/16 03:57:53;;;;;;;6.78;2.25;;;;;;;;;;4889540;29;20135;-87
2023/07/16 04:00:21;;;;;;;5.13;2.22;;;;;;;;;;4869793;29;20041;-87
2023/07/16 04:02:47;;;;;;;7.05;2.38;;;;;;;;;;4872723;29;20132;-88
2023/07/16 04:18:33;;;;;;;10.40;2.60;;;;;;;;;;5452259;23;20097;-85
2023/07/16 04:21:37;;;;;;;9.70;3.40;;;;;;;;;;4895573;29;20088;-87
2023/07/16 04:24:53;;;;;;;5.97;2.70;;;;;;;;;;4904465;29;20059;-84
2023/07/16 05:29:19;;;;;;;8.82;3.35;;;17.90;99.90;;;;;;1770786;23;20310;-85
2023/07/16 06:23:39;;;;;;;8.50;2.17;;;;;;;;;;4901287;29;20029;-86
2023/07/16 06:26:06;;;;;;;6.22;2.17;;;;;;;;;;4895453;29;20032;-87
2023/07/16 06:28:34;;;;;;;7.85;2.47;;;;;;;;;;4896266;29;20052;-85
2023/07/16 06:31:01;;;;;;;9.10;2.38;;;;;;;;;;4892576;29;20049;-82
2023/07/16 06:33:31;;;;;;;14.55;3.58;;;;;;;;;;4877923;29;20029;-81
2023/07/16 06:35:59;;;;;;;7.28;2.50;;;;;;;;;;4862599;29;20029;-81
2023/07/16 06:38:27;;;;;;;4.90;2.15;;;;;;;;;;4891208;29;20127;-82
2023/07/16 06:40:54;;;;;;;8.25;2.25;;;;;;;;;;4887049;29;20509;-81
2023/07/16 06:43:20;;;;;;;11.90;2.88;;;;;;;;;;4871248;29;20037;-82
2023/07/16 06:45:50;;;;;;;9.65;2.35;;;;;;;;;;4874304;29;20029;-81
2023/07/16 06:48:17;;;;;;;16.67;2.78;;;;;;;;;;4884764;29;20037;-80
2023/07/16 06:50:46;;;;;;;7.50;2.30;;;19.30;99.90;;;;;;4871139;29;20030;-81
2023/07/16 06:53:13;;;;;;;6.30;2.10;;;;;;;;;;4859548;29;20057;-81
2023/07/16 06:55:41;;;;;;;7.35;2.50;;;;;;;;;;4878046;29;20145;-81
2023/07/16 06:58:11;;;;;;;7.35;2.78;;;;;;;;;;4874174;29;20036;-82
2023/07/16 07:00:38;;;;;;;8.70;2.70;;;;;;;;;;4882004;29;20044;-81
2023/07/16 07:03:06;;;;;;;8.30;2.70;;;;;;;;;;4872929;29;20045;-83
2023/07/16 07:05:35;;;;;;;7.38;2.50;;;;;;;;;;4876952;29;20084;-81
2023/07/16 07:08:02;;;;;;;10.27;2.50;;;;;;;;;;4876010;29;20044;-86
2023/07/16 07:10:29;;;;;;;10.20;2.53;;;;;;;;;;4875613;29;20029;-81
2023/07/16 07:12:56;;;;;;;6.38;2.30;;;;;;;;;;4869896;29;20110;-81
2023/07/16 07:15:37;;;;;;;7.75;2.33;;;;;;;;;;4868940;29;20037;-81
2023/07/16 07:18:19;;;;;;;;;;;;;;;;;;;;;
2023/07/16 07:25:05;;;;;;;8.55;2.70;;;20.10;99.90;;;;;;4821960;29;20078;-80
2023/07/16 07:35:59;;;;;;;;;;;;;;;;;;;;;
2023/07/16 07:38:48;;;;;;;6.75;2.38;;;;;;;;;;4756798;30;20044;-83
2023/07/16 07:41:22;;;;;;;9.20;2.80;;;;;;;;;;4771439;29;20058;-84
2023/07/16 07:44:47;;;;;;;10.98;2.92;;;;;;;;;;4820434;29;20102;-82
2023/07/16 07:47:42;;;;;;;7.65;3.35;;;20.20;99.90;;;;;;4795357;29;20051;-80
2023/07/16 07:50:37;;;;;;;13.45;3.00;;;;;;;;;;4820113;29;20102;-82
2023/07/16 07:53:32;;;;;;;9.32;3.58;;;;;;;;;;4821705;29;20135;-82
2023/07/16 07:56:25;;;;;;;8.88;3.10;;;20.50;99.90;;;;;;4795153;29;20046;-84
2023/07/16 07:58:57;;;;;;;9.13;2.92;;;20.50;99.90;;;;;;4877022;29;20040;-79
2023/07/16 08:01:32;;;;;;;8.02;3.05;;;;;;;;;;4857010;29;20037;-80
2023/07/16 08:04:16;;;;;;;6.82;2.60;;;;;;;;;;4885229;29;20176;-81
2023/07/16 08:06:43;;;;;;;8.95;3.08;;;;;;;;;;4874365;29;20282;-81
2023/07/16 08:09:09;;;;;;;8.13;2.80;;;;;;;;;;4875151;29;20037;-81
2023/07/16 08:11:40;;;;;;;7.43;2.60;;;20.90;99.90;;;;;;4870817;29;20021;-80
2023/07/16 08:14:11;;;;;;;9.75;3.63;;;;;;;;;;4888427;29;20527;-81
2023/07/16 08:16:37;;;;;;;7.57;3.00;;;;;;;;;;4888131;29;20061;-83
2023/07/16 08:19:41;;;;;;;5.15;2.53;;;20.60;99.90;;;;;;4887795;29;20089;-83
2023/07/16 08:22:27;;;;;;;7.60;3.00;;;;;;;;;;4887118;29;20049;-83
2023/07/16 08:25:34;;;;;;;8.20;3.10;;;20.80;99.90;;;;;;4892134;29;20095;-85
2023/07/16 08:28:19;;;;;;;9.38;2.92;;;;;;;;;;4840886;29;20104;-83
2023/07/16 08:31:38;;;;;;;10.02;3.10;;;20.90;99.90;;;;;;4873834;29;20033;-82
2023/07/16 08:34:28;;;;;;;9.35;3.53;;;;;;;;;;4884165;29;20037;-82
2023/07/16 08:37:24;;;;;;;10.07;3.15;;;;;;;;;;4855102;29;20030;-84
2023/07/16 08:40:40;;;;;;;9.35;2.90;;;20.60;99.90;;;;;;4883324;29;20041;-84
2023/07/16 08:44:05;;;;;;;12.50;2.90;;;20.70;99.90;;;;;;4891436;29;20105;-81
2023/07/16 08:47:43;;;;;;;6.30;2.58;;;20.90;99.90;;;;;;4808706;29;20081;-82
2023/07/16 08:50:56;;;;;;;9.18;3.25;;;;;;;;;;4795896;29;20142;-85
2023/07/16 08:54:34;;;;;;;7.70;2.67;;;21.00;99.90;;;;;;4712781;30;20046;-82
2023/07/16 20:20:17;;;;;;;9.00;4.78;;;22.90;86.50;;;;;;5258063;23;20059;-81
2023/07/16 20:22:44;;;;;;;10.35;4.97;;;;;;;;;;4842526;29;20054;-84
2023/07/16 20:25:11;;;;;;;8.75;4.90;;;;;;;;;;4845955;29;20038;-83
2023/07/16 20:27:37;;;;;;;10.40;4.80;;;;;;;;;;4842038;29;20042;-82
2023/07/16 20:30:03;;;;;;;10.68;5.13;;;;;;;;;;4845339;29;20083;-83
2023/07/16 20:32:35;;;;;;;9.23;5.22;;;;;;;;;;4841401;29;20019;-83
2023/07/16 20:35:06;;;;;;;8.60;5.20;;;;;;;;;;4847024;29;20595;-81
2023/07/16 20:37:35;;;;;;;9.90;5.50;;;;;;;;;;4848135;29;20034;-83
2023/07/16 20:40:04;;;;;;;7.78;5.00;;;;;;;;;;4836209;29;20057;-82
2023/07/16 21:08:47;;;;;;;10.10;5.50;;;;;;;;;;4855358;29;20065;-84
2023/07/16 21:11:17;;;;;;;10.60;6.45;;;;;;;;;;4853710;29;20052;-82
2023/07/16 21:13:44;;;;;;;11.15;6.38;;;;;;;;;;4848303;29;20053;-83
2023/07/16 21:16:10;;;;;;;8.68;5.18;;;;;;;;;;4854557;29;20045;-83
2023/07/16 21:18:38;;;;;;;9.20;5.72;;;;;;;;;;4849215;29;20038;-82
2023/07/16 21:21:09;;;;;;;10.30;5.43;;;;;;;;;;4851334;29;20113;-82
2023/07/16 21:23:47;;;;;;;20.25;12.85;;;;;;;;;;4839430;29;20050;-83
2023/07/16 21:26:13;;;;;;;14.45;5.95;;;;;;;;;;4856616;29;20054;-83
2023/07/16 21:28:42;;;;;;;10.77;5.40;;;;;;;;;;4859099;29;20056;-83
2023/07/16 21:33:45;;;;;;;15.00;5.22;;;;;;;;;;5253273;23;20042;-89
2023/07/16 23:40:42;;;;;;;8.68;4.30;;;19.90;99.90;;;;;;1758644;23;20305;-85
2023/07/16 23:46:19;;;;;;;8.75;4.30;;;;;;;;;;5093479;23;20050;-86
2023/07/16 23:51:21;;;;;;;8.63;3.70;;;;;;;;;;5062110;23;20045;-87
2023/07/16 23:53:47;;;;;;;9.77;3.83;;;;;;;;;;4867975;29;20038;-86
2023/07/16 23:56:13;;;;;;;7.53;3.58;;;;;;;;;;4865363;29;20022;-87
2023/07/16 23:58:39;;;;;;;6.65;3.58;;;;;;;;;;4868623;29;20014;-89
